sensor_id;sensor_type;location;lat;lon;timestamp;P1;durP1;ratioP1;P2;durP2;ratioP2
20232;SDS011;37438;55.674;13.074;2022-08-19T00:02:00;16.88;;;15.20;;
20232;SDS011;37438;55.674;13.074;2022-08-19T00:05:04;19.83;;;14.70;;
20232;SDS011;37438;55.674;13.074;2022-08-19T00:08:09;16.92;;;14.93;;
20232;SDS011;37438;55.674;13.074;2022-08-19T00:11:14;15.48;;;13.95;;
20232;SDS011;37438;55.674;13.074;2022-08-19T00:14:29;16.52;;;14.13;;
20232;SDS011;37438;55.674;13.074;2022-08-19T00:17:35;18.40;;;14.57;;
20232;SDS011;37438;55.674;13.074;2022-08-19T00:20:44;17.13;;;14.43;;
20232;SDS011;37438;55.674;13.074;2022-08-19T00:23:49;17.60;;;14.93;;
20232;SDS011;37438;55.674;13.074;2022-08-19T00:26:54;25.30;;;14.65;;
20232;SDS011;37438;55.674;13.074;2022-08-19T00:30:20;28.73;;;15.52;;
20232;SDS011;37438;55.674;13.074;2022-08-19T00:33:25;27.15;;;15.15;;
20232;SDS011;37438;55.674;13.074;2022-08-19T00:36:34;20.63;;;16.40;;
20232;SDS011;37438;55.674;13.074;2022-08-19T00:39:39;17.48;;;15.68;;
20232;SDS011;37438;55.674;13.074;2022-08-19T00:42:43;21.00;;;17.02;;
20232;SDS011;37438;55.674;13.074;2022-08-19T00:45:48;23.40;;;17.08;;
20232;SDS011;37438;55.674;13.074;2022-08-19T00:48:54;22.95;;;17.65;;
20232;SDS011;37438;55.674;13.074;2022-08-19T00:52:06;23.63;;;16.70;;
20232;SDS011;37438;55.674;13.074;2022-08-19T00:55:23;22.10;;;17.45;;
20232;SDS011;37438;55.674;13.074;2022-08-19T00:58:32;22.77;;;18.30;;
20232;SDS011;37438;55.674;13.074;2022-08-19T01:01:39;19.75;;;17.30;;
20232;SDS011;37438;55.674;13.074;2022-08-19T01:04:45;22.00;;;18.00;;
20232;SDS011;37438;55.674;13.074;2022-08-19T01:07:50;26.23;;;18.33;;
20232;SDS011;37438;55.674;13.074;2022-08-19T01:10:56;22.63;;;17.10;;
20232;SDS011;37438;55.674;13.074;2022-08-19T01:14:03;17.77;;;15.93;;
20232;SDS011;37438;55.674;13.074;2022-08-19T01:17:09;21.48;;;17.23;;
20232;SDS011;37438;55.674;13.074;2022-08-19T01:20:17;23.08;;;15.65;;
20232;SDS011;37438;55.674;13.074;2022-08-19T01:23:24;19.95;;;15.88;;
20232;SDS011;37438;55.674;13.074;2022-08-19T01:26:46;24.92;;;16.17;;
20232;SDS011;37438;55.674;13.074;2022-08-19T01:29:52;20.85;;;15.60;;
20232;SDS011;37438;55.674;13.074;2022-08-19T01:32:56;24.58;;;16.40;;
20232;SDS011;37438;55.674;13.074;2022-08-19T01:36:08;19.00;;;15.90;;
20232;SDS011;37438;55.674;13.074;2022-08-19T01:39:20;23.70;;;17.80;;
20232;SDS011;37438;55.674;13.074;2022-08-19T01:42:26;23.30;;;17.15;;
20232;SDS011;37438;55.674;13.074;2022-08-19T01:45:34;22.50;;;17.67;;
20232;SDS011;37438;55.674;13.074;2022-08-19T01:48:40;24.60;;;17.40;;
20232;SDS011;37438;55.674;13.074;2022-08-19T01:51:45;18.55;;;16.55;;
20232;SDS011;37438;55.674;13.074;2022-08-19T01:54:50;17.58;;;15.35;;
20232;SDS011;37438;55.674;13.074;2022-08-19T01:57:55;20.30;;;15.38;;
20232;SDS011;37438;55.674;13.074;2022-08-19T02:01:03;22.42;;;16.90;;
20232;SDS011;37438;55.674;13.074;2022-08-19T02:04:08;20.05;;;16.02;;
20232;SDS011;37438;55.674;13.074;2022-08-19T02:07:13;22.55;;;16.25;;
20232;SDS011;37438;55.674;13.074;2022-08-19T02:10:19;21.00;;;17.30;;
20232;SDS011;37438;55.674;13.074;2022-08-19T02:13:25;17.27;;;15.45;;
20232;SDS011;37438;55.674;13.074;2022-08-19T02:16:30;17.98;;;16.08;;
20232;SDS011;37438;55.674;13.074;2022-08-19T02:19:36;17.25;;;15.43;;
20232;SDS011;37438;55.674;13.074;2022-08-19T02:22:43;20.45;;;16.15;;
20232;SDS011;37438;55.674;13.074;2022-08-19T02:25:49;19.70;;;17.60;;
20232;SDS011;37438;55.674;13.074;2022-08-19T02:28:55;21.98;;;19.67;;
20232;SDS011;37438;55.674;13.074;2022-08-19T02:32:00;22.02;;;17.60;;
20232;SDS011;37438;55.674;13.074;2022-08-19T02:35:05;21.10;;;18.88;;
20232;SDS011;37438;55.674;13.074;2022-08-19T02:38:15;22.50;;;18.45;;
20232;SDS011;37438;55.674;13.074;2022-08-19T02:41:31;22.20;;;18.05;;
20232;SDS011;37438;55.674;13.074;2022-08-19T02:44:36;20.63;;;18.35;;
20232;SDS011;37438;55.674;13.074;2022-08-19T02:50:46;21.48;;;18.42;;
20232;SDS011;37438;55.674;13.074;2022-08-19T02:53:56;37.42;;;22.80;;
20232;SDS011;37438;55.674;13.074;2022-08-19T02:57:01;26.00;;;19.77;;
20232;SDS011;37438;55.674;13.074;2022-08-19T03:00:06;25.05;;;20.00;;
20232;SDS011;37438;55.674;13.074;2022-08-19T03:03:11;31.45;;;20.35;;
20232;SDS011;37438;55.674;13.074;2022-08-19T03:06:16;22.60;;;19.05;;
20232;SDS011;37438;55.674;13.074;2022-08-19T03:09:21;21.98;;;19.42;;
20232;SDS011;37438;55.674;13.074;2022-08-19T03:15:30;26.92;;;18.63;;
20232;SDS011;37438;55.674;13.074;2022-08-19T03:18:34;22.55;;;20.05;;
20232;SDS011;37438;55.674;13.074;2022-08-19T03:21:39;26.08;;;19.25;;
20232;SDS011;37438;55.674;13.074;2022-08-19T03:24:46;23.38;;;21.08;;
20232;SDS011;37438;55.674;13.074;2022-08-19T03:27:51;24.13;;;21.10;;
20232;SDS011;37438;55.674;13.074;2022-08-19T03:31:00;22.13;;;19.65;;
20232;SDS011;37438;55.674;13.074;2022-08-19T03:34:28;23.58;;;20.58;;
20232;SDS011;37438;55.674;13.074;2022-08-19T03:37:34;22.33;;;20.02;;
20232;SDS011;37438;55.674;13.074;2022-08-19T03:40:39;24.40;;;19.83;;
20232;SDS011;37438;55.674;13.074;2022-08-19T03:43:43;23.08;;;19.17;;
20232;SDS011;37438;55.674;13.074;2022-08-19T03:46:52;21.25;;;19.02;;
20232;SDS011;37438;55.674;13.074;2022-08-19T03:49:59;25.25;;;19.38;;
20232;SDS011;37438;55.674;13.074;2022-08-19T03:56:08;31.02;;;19.88;;
20232;SDS011;37438;55.674;13.074;2022-08-19T03:59:15;24.55;;;19.83;;
20232;SDS011;37438;55.674;13.074;2022-08-19T04:02:24;23.63;;;19.98;;
20232;SDS011;37438;55.674;13.074;2022-08-19T04:05:28;22.38;;;19.95;;
20232;SDS011;37438;55.674;13.074;2022-08-19T04:08:33;22.13;;;19.98;;
20232;SDS011;37438;55.674;13.074;2022-08-19T04:11:48;21.05;;;19.10;;
20232;SDS011;37438;55.674;13.074;2022-08-19T04:14:57;25.25;;;19.92;;
20232;SDS011;37438;55.674;13.074;2022-08-19T04:18:02;22.75;;;20.35;;
20232;SDS011;37438;55.674;13.074;2022-08-19T04:24:12;22.55;;;20.13;;
20232;SDS011;37438;55.674;13.074;2022-08-19T04:27:17;22.00;;;19.70;;
20232;SDS011;37438;55.674;13.074;2022-08-19T04:30:22;25.60;;;19.88;;
20232;SDS011;37438;55.674;13.074;2022-08-19T04:33:26;22.25;;;20.15;;
20232;SDS011;37438;55.674;13.074;2022-08-19T04:36:34;24.15;;;21.55;;
20232;SDS011;37438;55.674;13.074;2022-08-19T04:39:39;26.38;;;20.85;;
20232;SDS011;37438;55.674;13.074;2022-08-19T04:43:05;27.30;;;20.55;;
20232;SDS011;37438;55.674;13.074;2022-08-19T04:49:36;26.65;;;22.50;;
20232;SDS011;37438;55.674;13.074;2022-08-19T04:52:41;25.92;;;22.25;;
20232;SDS011;37438;55.674;13.074;2022-08-19T04:55:46;28.02;;;22.73;;
20232;SDS011;37438;55.674;13.074;2022-08-19T04:58:51;24.08;;;21.63;;
20232;SDS011;37438;55.674;13.074;2022-08-19T05:01:56;27.33;;;24.40;;
20232;SDS011;37438;55.674;13.074;2022-08-19T05:05:01;26.48;;;23.75;;
20232;SDS011;37438;55.674;13.074;2022-08-19T05:08:06;27.10;;;22.90;;
20232;SDS011;37438;55.674;13.074;2022-08-19T05:11:28;28.73;;;24.40;;
20232;SDS011;37438;55.674;13.074;2022-08-19T05:14:35;30.38;;;25.75;;
20232;SDS011;37438;55.674;13.074;2022-08-19T05:17:40;32.15;;;24.85;;
20232;SDS011;37438;55.674;13.074;2022-08-19T05:21:06;25.10;;;22.35;;
20232;SDS011;37438;55.674;13.074;2022-08-19T05:24:33;24.92;;;22.35;;
20232;SDS011;37438;55.674;13.074;2022-08-19T05:27:38;23.75;;;21.27;;
20232;SDS011;37438;55.674;13.074;2022-08-19T05:30:43;24.42;;;22.02;;
20232;SDS011;37438;55.674;13.074;2022-08-19T05:33:50;23.95;;;21.40;;
20232;SDS011;37438;55.674;13.074;2022-08-19T05:36:58;25.35;;;21.70;;
20232;SDS011;37438;55.674;13.074;2022-08-19T05:40:03;25.20;;;22.67;;
20232;SDS011;37438;55.674;13.074;2022-08-19T05:43:08;22.38;;;19.92;;
20232;SDS011;37438;55.674;13.074;2022-08-19T05:46:19;26.42;;;21.75;;
20232;SDS011;37438;55.674;13.074;2022-08-19T05:49:32;20.98;;;18.77;;
20232;SDS011;37438;55.674;13.074;2022-08-19T05:52:38;21.75;;;19.50;;
20232;SDS011;37438;55.674;13.074;2022-08-19T05:55:49;24.70;;;18.48;;
20232;SDS011;37438;55.674;13.074;2022-08-19T05:58:53;21.02;;;18.02;;
20232;SDS011;37438;55.674;13.074;2022-08-19T06:01:58;19.67;;;17.73;;
20232;SDS011;37438;55.674;13.074;2022-08-19T06:05:04;19.80;;;17.92;;
20232;SDS011;37438;55.674;13.074;2022-08-19T06:08:12;21.08;;;17.45;;
20232;SDS011;37438;55.674;13.074;2022-08-19T06:14:29;18.67;;;16.77;;
20232;SDS011;37438;55.674;13.074;2022-08-19T06:17:36;17.85;;;16.13;;
20232;SDS011;37438;55.674;13.074;2022-08-19T06:20:40;20.55;;;17.63;;
20232;SDS011;37438;55.674;13.074;2022-08-19T06:23:58;22.38;;;17.02;;
20232;SDS011;37438;55.674;13.074;2022-08-19T06:27:03;20.38;;;17.17;;
20232;SDS011;37438;55.674;13.074;2022-08-19T06:30:09;22.70;;;15.98;;
20232;SDS011;37438;55.674;13.074;2022-08-19T06:33:15;17.33;;;15.43;;
20232;SDS011;37438;55.674;13.074;2022-08-19T06:36:25;18.25;;;16.35;;
20232;SDS011;37438;55.674;13.074;2022-08-19T06:42:42;20.58;;;15.70;;
20232;SDS011;37438;55.674;13.074;2022-08-19T06:45:57;16.80;;;14.98;;
20232;SDS011;37438;55.674;13.074;2022-08-19T06:49:03;18.85;;;14.98;;
20232;SDS011;37438;55.674;13.074;2022-08-19T06:52:08;16.92;;;15.20;;
20232;SDS011;37438;55.674;13.074;2022-08-19T06:55:18;16.60;;;14.20;;
20232;SDS011;37438;55.674;13.074;2022-08-19T06:58:22;15.88;;;13.60;;
20232;SDS011;37438;55.674;13.074;2022-08-19T07:01:26;16.20;;;13.55;;
20232;SDS011;37438;55.674;13.074;2022-08-19T07:04:32;13.77;;;12.13;;
20232;SDS011;37438;55.674;13.074;2022-08-19T07:07:37;15.55;;;13.60;;
20232;SDS011;37438;55.674;13.074;2022-08-19T07:10:45;17.83;;;12.57;;
20232;SDS011;37438;55.674;13.074;2022-08-19T07:13:50;14.90;;;12.77;;
20232;SDS011;37438;55.674;13.074;2022-08-19T07:16:57;15.55;;;12.65;;
20232;SDS011;37438;55.674;13.074;2022-08-19T07:20:01;17.95;;;13.13;;
20232;SDS011;37438;55.674;13.074;2022-08-19T07:23:09;14.25;;;12.98;;
20232;SDS011;37438;55.674;13.074;2022-08-19T07:26:24;16.23;;;12.57;;
20232;SDS011;37438;55.674;13.074;2022-08-19T07:29:35;12.88;;;11.57;;
20232;SDS011;37438;55.674;13.074;2022-08-19T07:32:40;13.88;;;12.48;;
20232;SDS011;37438;55.674;13.074;2022-08-19T07:35:46;14.10;;;11.68;;
20232;SDS011;37438;55.674;13.074;2022-08-19T07:38:51;12.75;;;11.55;;
20232;SDS011;37438;55.674;13.074;2022-08-19T07:41:59;30.40;;;11.05;;
20232;SDS011;37438;55.674;13.074;2022-08-19T07:45:06;13.80;;;11.13;;
20232;SDS011;37438;55.674;13.074;2022-08-19T07:48:11;16.92;;;11.50;;
20232;SDS011;37438;55.674;13.074;2022-08-19T07:51:17;15.20;;;9.85;;
20232;SDS011;37438;55.674;13.074;2022-08-19T07:54:39;12.50;;;10.33;;
20232;SDS011;37438;55.674;13.074;2022-08-19T07:57:44;11.70;;;10.38;;
20232;SDS011;37438;55.674;13.074;2022-08-19T08:00:49;12.60;;;10.07;;
20232;SDS011;37438;55.674;13.074;2022-08-19T08:03:55;17.20;;;10.95;;
20232;SDS011;37438;55.674;13.074;2022-08-19T08:07:19;16.25;;;11.18;;
20232;SDS011;37438;55.674;13.074;2022-08-19T08:10:49;15.32;;;9.30;;
20232;SDS011;37438;55.674;13.074;2022-08-19T08:13:57;14.95;;;10.15;;
20232;SDS011;37438;55.674;13.074;2022-08-19T08:17:07;11.30;;;9.40;;
20232;SDS011;37438;55.674;13.074;2022-08-19T08:20:13;11.68;;;8.93;;
20232;SDS011;37438;55.674;13.074;2022-08-19T08:23:18;9.75;;;7.90;;
20232;SDS011;37438;55.674;13.074;2022-08-19T08:26:30;9.30;;;8.45;;
20232;SDS011;37438;55.674;13.074;2022-08-19T08:29:37;8.25;;;7.45;;
20232;SDS011;37438;55.674;13.074;2022-08-19T08:32:42;9.10;;;8.30;;
20232;SDS011;37438;55.674;13.074;2022-08-19T08:35:48;8.70;;;7.90;;
20232;SDS011;37438;55.674;13.074;2022-08-19T08:38:53;12.00;;;8.57;;
20232;SDS011;37438;55.674;13.074;2022-08-19T08:42:09;9.38;;;8.13;;
20232;SDS011;37438;55.674;13.074;2022-08-19T08:45:21;11.48;;;8.80;;
20232;SDS011;37438;55.674;13.074;2022-08-19T08:48:32;10.98;;;8.40;;
20232;SDS011;37438;55.674;13.074;2022-08-19T08:52:06;10.20;;;8.10;;
20232;SDS011;37438;55.674;13.074;2022-08-19T08:55:19;11.30;;;7.65;;
20232;SDS011;37438;55.674;13.074;2022-08-19T08:58:30;8.10;;;7.05;;
20232;SDS011;37438;55.674;13.074;2022-08-19T09:01:46;13.68;;;6.65;;
20232;SDS011;37438;55.674;13.074;2022-08-19T09:04:50;9.85;;;7.35;;
20232;SDS011;37438;55.674;13.074;2022-08-19T09:08:01;9.68;;;7.13;;
20232;SDS011;37438;55.674;13.074;2022-08-19T09:11:19;9.70;;;6.97;;
20232;SDS011;37438;55.674;13.074;2022-08-19T09:17:58;10.77;;;7.70;;
20232;SDS011;37438;55.674;13.074;2022-08-19T09:21:05;8.18;;;6.72;;
20232;SDS011;37438;55.674;13.074;2022-08-19T09:24:11;9.77;;;6.82;;
20232;SDS011;37438;55.674;13.074;2022-08-19T09:27:16;9.95;;;5.78;;
20232;SDS011;37438;55.674;13.074;2022-08-19T09:30:24;8.20;;;6.50;;
20232;SDS011;37438;55.674;13.074;2022-08-19T09:33:33;16.00;;;7.35;;
20232;SDS011;37438;55.674;13.074;2022-08-19T09:36:38;8.77;;;6.80;;
20232;SDS011;37438;55.674;13.074;2022-08-19T09:39:43;9.88;;;6.43;;
20232;SDS011;37438;55.674;13.074;2022-08-19T09:42:47;9.43;;;6.35;;
20232;SDS011;37438;55.674;13.074;2022-08-19T09:45:55;7.43;;;6.40;;
20232;SDS011;37438;55.674;13.074;2022-08-19T09:48:59;8.75;;;6.63;;
20232;SDS011;37438;55.674;13.074;2022-08-19T09:52:09;6.30;;;5.72;;
20232;SDS011;37438;55.674;13.074;2022-08-19T09:55:16;10.65;;;6.65;;
20232;SDS011;37438;55.674;13.074;2022-08-19T09:58:21;7.60;;;5.72;;
20232;SDS011;37438;55.674;13.074;2022-08-19T10:01:30;7.22;;;4.93;;
20232;SDS011;37438;55.674;13.074;2022-08-19T10:04:35;17.95;;;6.30;;
20232;SDS011;37438;55.674;13.074;2022-08-19T10:07:59;9.70;;;5.35;;
20232;SDS011;37438;55.674;13.074;2022-08-19T10:11:07;8.18;;;5.88;;
20232;SDS011;37438;55.674;13.074;2022-08-19T10:14:34;6.40;;;5.63;;
20232;SDS011;37438;55.674;13.074;2022-08-19T10:17:38;6.32;;;5.72;;
20232;SDS011;37438;55.674;13.074;2022-08-19T10:20:51;9.43;;;5.97;;
20232;SDS011;37438;55.674;13.074;2022-08-19T10:23:58;12.48;;;5.43;;
20232;SDS011;37438;55.674;13.074;2022-08-19T10:27:07;14.07;;;6.35;;
20232;SDS011;37438;55.674;13.074;2022-08-19T10:30:13;6.93;;;5.72;;
20232;SDS011;37438;55.674;13.074;2022-08-19T10:33:19;8.55;;;6.75;;
20232;SDS011;37438;55.674;13.074;2022-08-19T10:36:43;8.90;;;8.02;;
20232;SDS011;37438;55.674;13.074;2022-08-19T10:39:59;14.85;;;7.15;;
20232;SDS011;37438;55.674;13.074;2022-08-19T10:43:05;13.60;;;8.70;;
20232;SDS011;37438;55.674;13.074;2022-08-19T10:46:11;12.05;;;9.35;;
20232;SDS011;37438;55.674;13.074;2022-08-19T10:49:19;10.68;;;9.27;;
20232;SDS011;37438;55.674;13.074;2022-08-19T10:52:25;11.77;;;9.05;;
20232;SDS011;37438;55.674;13.074;2022-08-19T10:55:44;20.52;;;10.88;;
20232;SDS011;37438;55.674;13.074;2022-08-19T10:59:07;14.25;;;9.57;;
20232;SDS011;37438;55.674;13.074;2022-08-19T11:02:12;14.25;;;10.30;;
20232;SDS011;37438;55.674;13.074;2022-08-19T11:05:17;14.18;;;9.80;;
20232;SDS011;37438;55.674;13.074;2022-08-19T11:08:22;21.70;;;11.02;;
20232;SDS011;37438;55.674;13.074;2022-08-19T11:11:28;11.27;;;9.75;;
20232;SDS011;37438;55.674;13.074;2022-08-19T11:14:33;12.48;;;9.93;;
20232;SDS011;37438;55.674;13.074;2022-08-19T11:17:38;18.85;;;13.13;;
20232;SDS011;37438;55.674;13.074;2022-08-19T11:20:47;19.80;;;12.77;;
20232;SDS011;37438;55.674;13.074;2022-08-19T11:23:54;16.52;;;13.45;;
20232;SDS011;37438;55.674;13.074;2022-08-19T11:27:02;20.67;;;13.73;;
20232;SDS011;37438;55.674;13.074;2022-08-19T11:30:09;13.95;;;12.57;;
20232;SDS011;37438;55.674;13.074;2022-08-19T11:33:16;20.30;;;13.52;;
20232;SDS011;37438;55.674;13.074;2022-08-19T11:36:21;16.17;;;13.77;;
20232;SDS011;37438;55.674;13.074;2022-08-19T11:39:26;14.55;;;12.55;;
20232;SDS011;37438;55.674;13.074;2022-08-19T11:42:32;14.80;;;13.15;;
20232;SDS011;37438;55.674;13.074;2022-08-19T11:45:55;23.25;;;14.95;;
20232;SDS011;37438;55.674;13.074;2022-08-19T11:49:01;15.55;;;13.98;;
20232;SDS011;37438;55.674;13.074;2022-08-19T11:52:13;17.23;;;14.85;;
20232;SDS011;37438;55.674;13.074;2022-08-19T11:55:18;20.90;;;15.07;;
20232;SDS011;37438;55.674;13.074;2022-08-19T11:58:23;19.63;;;15.10;;
20232;SDS011;37438;55.674;13.074;2022-08-19T12:01:28;15.88;;;14.30;;
20232;SDS011;37438;55.674;13.074;2022-08-19T12:04:34;21.65;;;16.70;;
20232;SDS011;37438;55.674;13.074;2022-08-19T12:07:39;18.25;;;16.10;;
20232;SDS011;37438;55.674;13.074;2022-08-19T12:10:45;19.23;;;14.32;;
20232;SDS011;37438;55.674;13.074;2022-08-19T12:13:50;20.23;;;14.63;;
20232;SDS011;37438;55.674;13.074;2022-08-19T12:16:55;16.30;;;14.38;;
20232;SDS011;37438;55.674;13.074;2022-08-19T12:19:59;19.30;;;15.57;;
20232;SDS011;37438;55.674;13.074;2022-08-19T12:23:04;17.30;;;13.52;;
20232;SDS011;37438;55.674;13.074;2022-08-19T12:26:09;19.23;;;14.27;;
20232;SDS011;37438;55.674;13.074;2022-08-19T12:29:15;16.50;;;14.77;;
20232;SDS011;37438;55.674;13.074;2022-08-19T12:32:26;19.50;;;14.57;;
20232;SDS011;37438;55.674;13.074;2022-08-19T12:35:31;16.27;;;13.95;;
20232;SDS011;37438;55.674;13.074;2022-08-19T12:38:36;20.52;;;14.60;;
20232;SDS011;37438;55.674;13.074;2022-08-19T12:41:41;16.95;;;15.07;;
20232;SDS011;37438;55.674;13.074;2022-08-19T12:44:58;16.92;;;13.20;;
20232;SDS011;37438;55.674;13.074;2022-08-19T12:48:02;15.43;;;13.82;;
20232;SDS011;37438;55.674;13.074;2022-08-19T12:51:27;14.68;;;13.10;;
20232;SDS011;37438;55.674;13.074;2022-08-19T12:54:32;14.48;;;13.07;;
20232;SDS011;37438;55.674;13.074;2022-08-19T12:57:37;13.18;;;11.43;;
20232;SDS011;37438;55.674;13.074;2022-08-19T13:00:42;12.88;;;11.68;;
20232;SDS011;37438;55.674;13.074;2022-08-19T13:03:46;14.93;;;12.88;;
20232;SDS011;37438;55.674;13.074;2022-08-19T13:06:54;14.15;;;12.45;;
20232;SDS011;37438;55.674;13.074;2022-08-19T13:09:58;14.70;;;11.82;;
20232;SDS011;37438;55.674;13.074;2022-08-19T13:13:03;16.00;;;11.10;;
20232;SDS011;37438;55.674;13.074;2022-08-19T13:16:10;14.18;;;9.40;;
20232;SDS011;37438;55.674;13.074;2022-08-19T13:19:16;11.80;;;10.57;;
20232;SDS011;37438;55.674;13.074;2022-08-19T13:22:24;12.43;;;11.13;;
20232;SDS011;37438;55.674;13.074;2022-08-19T13:25:29;14.70;;;11.80;;
20232;SDS011;37438;55.674;13.074;2022-08-19T13:28:34;21.50;;;11.68;;
20232;SDS011;37438;55.674;13.074;2022-08-19T13:31:57;20.50;;;11.57;;
20232;SDS011;37438;55.674;13.074;2022-08-19T13:35:21;13.00;;;10.77;;
20232;SDS011;37438;55.674;13.074;2022-08-19T13:38:26;15.13;;;10.57;;
20232;SDS011;37438;55.674;13.074;2022-08-19T13:41:31;11.30;;;10.27;;
20232;SDS011;37438;55.674;13.074;2022-08-19T13:44:37;10.77;;;9.68;;
20232;SDS011;37438;55.674;13.074;2022-08-19T13:47:42;11.50;;;10.07;;
20232;SDS011;37438;55.674;13.074;2022-08-19T13:50:48;16.10;;;11.35;;
20232;SDS011;37438;55.674;13.074;2022-08-19T13:53:53;13.75;;;10.63;;
20232;SDS011;37438;55.674;13.074;2022-08-19T13:56:59;11.23;;;9.82;;
20232;SDS011;37438;55.674;13.074;2022-08-19T14:00:03;12.07;;;10.38;;
20232;SDS011;37438;55.674;13.074;2022-08-19T14:03:16;12.90;;;11.10;;
20232;SDS011;37438;55.674;13.074;2022-08-19T14:06:20;11.07;;;9.88;;
20232;SDS011;37438;55.674;13.074;2022-08-19T14:09:26;11.73;;;10.15;;
20232;SDS011;37438;55.674;13.074;2022-08-19T14:12:30;14.52;;;11.52;;
20232;SDS011;37438;55.674;13.074;2022-08-19T14:15:36;11.30;;;9.70;;
20232;SDS011;37438;55.674;13.074;2022-08-19T14:18:42;12.18;;;9.60;;
20232;SDS011;37438;55.674;13.074;2022-08-19T14:21:47;18.65;;;11.07;;
20232;SDS011;37438;55.674;13.074;2022-08-19T14:24:52;13.10;;;11.07;;
20232;SDS011;37438;55.674;13.074;2022-08-19T14:27:56;16.75;;;13.32;;
20232;SDS011;37438;55.674;13.074;2022-08-19T14:31:02;14.50;;;12.10;;
20232;SDS011;37438;55.674;13.074;2022-08-19T14:34:06;14.18;;;10.77;;
20232;SDS011;37438;55.674;13.074;2022-08-19T14:37:11;11.18;;;10.18;;
20232;SDS011;37438;55.674;13.074;2022-08-19T14:40:18;13.20;;;11.13;;
20232;SDS011;37438;55.674;13.074;2022-08-19T14:43:25;14.40;;;11.32;;
20232;SDS011;37438;55.674;13.074;2022-08-19T14:46:30;12.07;;;8.55;;
20232;SDS011;37438;55.674;13.074;2022-08-19T14:49:35;9.43;;;7.32;;
20232;SDS011;37438;55.674;13.074;2022-08-19T14:52:48;9.05;;;7.05;;
20232;SDS011;37438;55.674;13.074;2022-08-19T14:55:53;11.45;;;7.18;;
20232;SDS011;37438;55.674;13.074;2022-08-19T14:58:58;8.00;;;7.07;;
20232;SDS011;37438;55.674;13.074;2022-08-19T15:02:04;11.10;;;8.82;;
20232;SDS011;37438;55.674;13.074;2022-08-19T15:05:29;9.20;;;8.30;;
20232;SDS011;37438;55.674;13.074;2022-08-19T15:08:35;10.20;;;8.40;;
20232;SDS011;37438;55.674;13.074;2022-08-19T15:11:43;10.05;;;8.05;;
20232;SDS011;37438;55.674;13.074;2022-08-19T15:14:47;13.77;;;9.25;;
20232;SDS011;37438;55.674;13.074;2022-08-19T15:17:57;13.15;;;9.80;;
20232;SDS011;37438;55.674;13.074;2022-08-19T15:21:06;10.25;;;9.18;;
20232;SDS011;37438;55.674;13.074;2022-08-19T15:24:10;11.90;;;10.75;;
20232;SDS011;37438;55.674;13.074;2022-08-19T15:27:15;18.38;;;10.88;;
20232;SDS011;37438;55.674;13.074;2022-08-19T15:30:21;12.93;;;11.60;;
20232;SDS011;37438;55.674;13.074;2022-08-19T15:33:29;19.52;;;12.25;;
20232;SDS011;37438;55.674;13.074;2022-08-19T15:36:35;17.23;;;12.88;;
20232;SDS011;37438;55.674;13.074;2022-08-19T15:39:40;12.30;;;10.80;;
20232;SDS011;37438;55.674;13.074;2022-08-19T15:42:45;14.80;;;11.52;;
20232;SDS011;37438;55.674;13.074;2022-08-19T15:45:52;12.95;;;11.35;;
20232;SDS011;37438;55.674;13.074;2022-08-19T15:48:57;19.02;;;13.05;;
20232;SDS011;37438;55.674;13.074;2022-08-19T15:52:03;18.90;;;13.95;;
20232;SDS011;37438;55.674;13.074;2022-08-19T15:55:10;13.95;;;11.80;;
20232;SDS011;37438;55.674;13.074;2022-08-19T16:01:58;17.60;;;13.07;;
20232;SDS011;37438;55.674;13.074;2022-08-19T16:05:23;25.67;;;13.85;;
20232;SDS011;37438;55.674;13.074;2022-08-19T16:08:47;23.50;;;13.98;;
20232;SDS011;37438;55.674;13.074;2022-08-19T16:11:54;18.58;;;13.88;;
20232;SDS011;37438;55.674;13.074;2022-08-19T16:15:04;18.92;;;14.55;;
20232;SDS011;37438;55.674;13.074;2022-08-19T16:18:09;17.77;;;15.10;;
20232;SDS011;37438;55.674;13.074;2022-08-19T16:21:14;22.98;;;15.93;;
20232;SDS011;37438;55.674;13.074;2022-08-19T16:24:20;19.67;;;15.43;;
20232;SDS011;37438;55.674;13.074;2022-08-19T16:27:27;20.35;;;15.93;;
20232;SDS011;37438;55.674;13.074;2022-08-19T16:30:33;19.70;;;15.15;;
20232;SDS011;37438;55.674;13.074;2022-08-19T16:33:38;26.17;;;17.13;;
20232;SDS011;37438;55.674;13.074;2022-08-19T16:36:43;21.83;;;15.18;;
20232;SDS011;37438;55.674;13.074;2022-08-19T16:39:47;22.08;;;14.50;;
20232;SDS011;37438;55.674;13.074;2022-08-19T16:42:52;17.38;;;14.25;;
20232;SDS011;37438;55.674;13.074;2022-08-19T16:45:56;18.92;;;14.23;;
20232;SDS011;37438;55.674;13.074;2022-08-19T16:49:01;18.00;;;14.45;;
20232;SDS011;37438;55.674;13.074;2022-08-19T16:52:06;17.13;;;13.93;;
20232;SDS011;37438;55.674;13.074;2022-08-19T16:55:12;19.17;;;13.45;;
20232;SDS011;37438;55.674;13.074;2022-08-19T16:58:17;14.55;;;12.85;;
20232;SDS011;37438;55.674;13.074;2022-08-19T17:01:30;16.08;;;10.70;;
20232;SDS011;37438;55.674;13.074;2022-08-19T17:04:35;13.70;;;10.38;;
20232;SDS011;37438;55.674;13.074;2022-08-19T17:07:39;9.80;;;8.63;;
20232;SDS011;37438;55.674;13.074;2022-08-19T17:10:44;8.80;;;8.02;;
20232;SDS011;37438;55.674;13.074;2022-08-19T17:14:08;9.38;;;7.80;;
20232;SDS011;37438;55.674;13.074;2022-08-19T17:17:13;9.07;;;8.15;;
20232;SDS011;37438;55.674;13.074;2022-08-19T17:20:20;8.30;;;7.47;;
20232;SDS011;37438;55.674;13.074;2022-08-19T17:23:24;11.20;;;8.98;;
20232;SDS011;37438;55.674;13.074;2022-08-19T17:26:46;10.02;;;8.57;;
20232;SDS011;37438;55.674;13.074;2022-08-19T17:29:50;11.63;;;9.27;;
20232;SDS011;37438;55.674;13.074;2022-08-19T17:32:55;10.48;;;8.27;;
20232;SDS011;37438;55.674;13.074;2022-08-19T17:36:01;11.70;;;10.25;;
20232;SDS011;37438;55.674;13.074;2022-08-19T17:39:08;11.00;;;9.95;;
20232;SDS011;37438;55.674;13.074;2022-08-19T17:42:12;12.73;;;10.30;;
20232;SDS011;37438;55.674;13.074;2022-08-19T17:45:16;16.77;;;12.48;;
20232;SDS011;37438;55.674;13.074;2022-08-19T17:48:20;20.02;;;13.60;;
20232;SDS011;37438;55.674;13.074;2022-08-19T17:54:38;13.68;;;12.07;;
20232;SDS011;37438;55.674;13.074;2022-08-19T17:57:43;15.55;;;12.10;;
20232;SDS011;37438;55.674;13.074;2022-08-19T18:00:49;20.98;;;13.00;;
20232;SDS011;37438;55.674;13.074;2022-08-19T18:03:56;15.05;;;12.13;;
20232;SDS011;37438;55.674;13.074;2022-08-19T18:07:01;21.17;;;14.35;;
20232;SDS011;37438;55.674;13.074;2022-08-19T18:10:07;17.13;;;12.85;;
20232;SDS011;37438;55.674;13.074;2022-08-19T18:13:12;17.33;;;14.10;;
20232;SDS011;37438;55.674;13.074;2022-08-19T18:16:20;16.58;;;13.95;;
20232;SDS011;37438;55.674;13.074;2022-08-19T18:19:25;21.05;;;14.52;;
20232;SDS011;37438;55.674;13.074;2022-08-19T18:22:45;14.07;;;12.40;;
20232;SDS011;37438;55.674;13.074;2022-08-19T18:25:50;18.73;;;14.85;;
20232;SDS011;37438;55.674;13.074;2022-08-19T18:28:55;22.73;;;15.18;;
20232;SDS011;37438;55.674;13.074;2022-08-19T18:32:00;18.95;;;14.73;;
20232;SDS011;37438;55.674;13.074;2022-08-19T18:35:07;15.63;;;13.98;;
20232;SDS011;37438;55.674;13.074;2022-08-19T18:38:15;13.63;;;12.30;;
20232;SDS011;37438;55.674;13.074;2022-08-19T18:41:40;15.32;;;13.70;;